Frankfort, ME

4:47 PM EDT on August 28, 2016 (GMT -0400)
Goshen Rd | | Change Station

Elev 308 ft 44.63 °N, 68.99 °W | Updated 20 seconds ago

Mostly Cloudy
Mostly Cloudy
72.9 °F
Feels Like 75 °F
N
2.6
Wind Variable Wind from North

Today
High -- | Low -- °F
--% Chance of Precip.
Yesterday
High -- | Low -- °F
Precip. -- in
Pressure 30.20 in
Visibility 10.0 miles
Clouds Few 3000 ft
Scattered Clouds 6000 ft
Mostly Cloudy 10000 ft
Heat Index 75 °F
Dew Point 62 °F
Humidity 68%
Rainfall 0.00 in
Snow Depth Not available.
5:54 AM 7:18 PM
Waning Crescent, 13% visible
METAR KBGR 281953Z 18013KT 10SM FEW030 SCT060 BKN100 23/14 A3020 RMK AO2 SLP225 T02330144
Pressure 30.20 in
Visibility 10.0 miles
Clouds Few 3000 ft
Scattered Clouds 6000 ft
Mostly Cloudy 10000 ft
Heat Index 75 °F
Dew Point 62 °F
Humidity 68%
Rainfall 0.00 in
Snow Depth Not available.
5:54 AM 7:18 PM
Waning Crescent, 13% visible
METAR KBGR 281953Z 18013KT 10SM FEW030 SCT060 BKN100 23/14 A3020 RMK AO2 SLP225 T02330144

10-Day Weather Forecast

Almanac

Astronomy

Aug. 28, 2016 Rise Set
Actual Time
Civil Twilight
Nautical Twilight
Astronomical Twilight
Moon
Length of Visible Light
Length of Day
Tomorrow will be .
, % of the Moon is Illuminated

Today's Extremes

State Highs State Lows

Community

WunderPhotos

Upload Photos

1,935,689 photos uploaded!

WunderBlog® & News

Nearby

Air Quality

  Air Quality AQ Index Pollutant
Not available.

Snow Depth

Station Depth Elevation

Earthquake Activity

City Distance Mag. Time & Date
Minimum magnitude displayed is 2.5.

Coastal Water Temperatures

Place Temperature

Stations

Nearby Weather Stations

Station Location Temp. Windchill Dew Point Humidity Wind Precip. Elev Updated Type
                   

Watches & Warnings

There are currently no watches in effect.